Time;durP1;ratioP1;P1;durP2;ratioP2;P2;SDS_P1;SDS_P2;PMS_P1;PMS_P2;Temp;Humidity;BMP_temperature;BMP_pressure;BME280_temperature;BME280_humidity;BME280_pressure;Samples;Min_cycle;Max_cycle;Signal;HPM_P1;HPM_P2
2023/02/21 02:14:55;;;;;;;;;;;;;;;15.37;nan;100917.72;4949900;28;19928;-89
2023/02/21 02:17:39;;;;;;;;;;;;;;;15.37;nan;100918.53;4941175;28;20570;-89
2023/02/21 02:20:18;;;;;;;;;;;;;;;15.38;nan;100914.75;4936867;28;19941;-88
2023/02/21 02:22:59;;;;;;;;;;;;;;;15.40;nan;100922.56;4950711;28;19918;-88
2023/02/21 02:25:43;;;;;;;;;;;;;;;15.47;nan;100906.09;4959940;28;20303;-87
2023/02/21 02:28:08;;;;;;;;;;;;;;;15.53;nan;100894.16;4952692;28;20020;-88
2023/02/21 02:30:49;;;;;;;;;;;;;;;15.53;nan;100888.75;4953776;28;20045;-88
2023/02/21 02:33:20;;;;;;;;;;;;;;;15.57;nan;100889.81;4953488;28;19922;-88
2023/02/21 02:35:52;;;;;;;;;;;;;;;15.53;nan;100891.47;4954230;28;19928;-88
2023/02/21 02:38:17;;;;;;;;;;;;;;;15.47;nan;100889.88;4952903;28;19922;-87
2023/02/21 02:40:55;;;;;;;;;;;;;;;15.49;nan;100902.03;4960147;28;20440;-88
2023/02/21 02:43:25;;;;;;;;;;;;;;;15.45;nan;100903.66;4968117;28;20344;-87
2023/02/21 02:45:51;;;;;;;;;;;;;;;15.42;nan;100905.00;4973330;28;19930;-87
2023/02/21 02:48:27;;;;;;;;;;;;;;;15.42;nan;100902.28;4967843;28;20021;-88
2023/02/21 02:50:52;;;;;;;;;;;;;;;15.42;nan;100910.41;4968822;28;19919;-87
2023/02/21 02:53:19;;;;;;;;;;;;;;;15.42;nan;100902.28;4957182;28;19933;-88
2023/02/21 02:55:48;;;;;;;;;;;;;;;15.40;nan;100912.56;4966523;28;20369;-87
2023/02/21 02:58:14;;;;;;;;;;;;;;;15.34;nan;100916.38;4957826;28;19923;-87
2023/02/21 03:00:44;;;;;;;;;;;;;;;15.33;nan;100913.97;4958023;28;19926;-88
2023/02/21 03:03:37;;;;;;;;;;;;;;;15.30;nan;100936.91;4955062;28;19921;-88
2023/02/21 03:06:08;;;;;;;;;;;;;;;15.23;nan;100912.09;4966484;28;19994;-88
2023/02/21 03:08:34;;;;;;;;;;;;;;;15.10;nan;100921.59;4970704;28;19918;-88
2023/02/21 03:11:19;;;;;;;;;;;;;;;15.14;nan;100923.75;4962098;28;19922;-88
2023/02/21 03:13:47;;;;;;;;;;;;;;;15.10;nan;100928.88;4958541;28;19931;-88
2023/02/21 03:16:14;;;;;;;;;;;;;;;14.96;nan;100933.22;4966854;28;19979;-88
2023/02/21 03:18:46;;;;;;;;;;;;;;;14.98;nan;100939.16;4968819;28;19949;-88
2023/02/21 03:21:16;;;;;;;;;;;;;;;14.96;nan;100944.81;4961143;28;19914;-89
2023/02/21 03:23:44;;;;;;;;;;;;;;;15.01;nan;100944.00;4961903;28;20271;-88
2023/02/21 03:26:11;;;;;;;;;;;;;;;14.97;nan;100946.44;4941297;28;19926;-88
2023/02/21 03:28:36;;;;;;;;;;;;;;;15.03;nan;100950.72;4958228;28;19926;-87
2023/02/21 03:31:03;;;;;;;;;;;;;;;14.96;nan;100946.72;4968769;28;20323;-87
2023/02/21 03:33:28;;;;;;;;;;;;;;;14.98;nan;100948.03;4967057;28;19922;-88
2023/02/21 03:35:54;;;;;;;;;;;;;;;15.04;nan;100941.56;4969080;28;19922;-87
2023/02/21 03:38:19;;;;;;;;;;;;;;;15.01;nan;100942.09;4968586;28;20496;-87
2023/02/21 03:40:45;;;;;;;;;;;;;;;15.03;nan;100949.91;4971949;28;20064;-87
2023/02/21 03:43:10;;;;;;;;;;;;;;;15.07;nan;100946.41;4967269;28;19919;-86
2023/02/21 03:45:36;;;;;;;;;;;;;;;15.04;nan;100943.44;4966451;28;19997;-86
2023/02/21 03:48:01;;;;;;;;;;;;;;;15.06;nan;100946.66;4960735;28;19919;-86
2023/02/21 03:50:27;;;;;;;;;;;;;;;14.97;nan;100941.03;4954114;28;19942;-87
2023/02/21 03:52:52;;;;;;;;;;;;;;;14.91;nan;100952.13;4945260;28;20016;-87
2023/02/21 03:55:19;;;;;;;;;;;;;;;14.82;nan;100958.03;4965403;28;19940;-88
2023/02/21 03:57:44;;;;;;;;;;;;;;;14.80;nan;100957.50;4964061;28;19930;-87
2023/02/21 04:00:10;;;;;;;;;;;;;;;14.81;nan;100940.25;4955488;28;19919;-86
2023/02/21 04:02:35;;;;;;;;;;;;;;;14.77;nan;100963.44;4969256;28;19923;-86
2023/02/21 04:05:01;;;;;;;;;;;;;;;14.76;nan;100966.41;4973830;28;19977;-87
2023/02/21 04:07:26;;;;;;;;;;;;;;;14.72;nan;100955.38;4969247;28;19925;-86
2023/02/21 04:09:52;;;;;;;;;;;;;;;14.65;nan;100964.78;4970332;28;20466;-87
2023/02/21 04:12:17;;;;;;;;;;;;;;;14.67;nan;100958.03;4955916;28;19918;-88
2023/02/21 04:14:43;;;;;;;;;;;;;;;14.57;nan;100958.06;4965189;28;19923;-87
2023/02/21 04:17:08;;;;;;;;;;;;;;;14.52;nan;100969.63;4970864;28;20024;-88
2023/02/21 04:19:34;;;;;;;;;;;;;;;14.48;nan;100976.66;4965191;28;19925;-87
2023/02/21 04:21:59;;;;;;;;;;;;;;;14.52;nan;100971.53;4968633;28;20013;-88
2023/02/21 04:24:25;;;;;;;;;;;;;;;14.50;nan;100968.28;4966187;28;20147;-86
2023/02/21 04:26:50;;;;;;;;;;;;;;;14.49;nan;100969.38;4972030;28;19933;-87
2023/02/21 04:29:16;;;;;;;;;;;;;;;14.48;nan;100975.84;4965247;28;19927;-88
2023/02/21 04:31:41;;;;;;;;;;;;;;;14.44;nan;100977.47;4966435;28;19927;-87
2023/02/21 04:34:06;;;;;;;;;;;;;;;14.38;nan;100981.19;4957715;28;19926;-88
2023/02/21 04:36:32;;;;;;;;;;;;;;;14.28;nan;100989.25;4959567;28;19918;-89
2023/02/21 04:38:57;;;;;;;;;;;;;;;14.32;nan;100993.03;4962479;28;20408;-87
2023/02/21 04:41:24;;;;;;;;;;;;;;;14.29;nan;100985.47;4958597;28;21379;-88
2023/02/21 04:43:51;;;;;;;;;;;;;;;14.34;nan;100996.25;4961206;28;19927;-88
2023/02/21 04:46:17;;;;;;;;;;;;;;;14.35;nan;100992.50;4964233;28;20316;-87
2023/02/21 04:48:43;;;;;;;;;;;;;;;14.33;nan;101006.25;4961025;28;20498;-87
2023/02/21 04:51:10;;;;;;;;;;;;;;;14.33;nan;100998.16;4963541;28;19918;-87
2023/02/21 04:53:35;;;;;;;;;;;;;;;14.30;nan;100996.00;4964607;28;19918;-88
2023/02/21 04:56:00;;;;;;;;;;;;;;;14.36;nan;101004.88;4960486;28;20017;-87
2023/02/21 04:58:26;;;;;;;;;;;;;;;14.27;nan;100990.34;4960985;28;19973;-86
2023/02/21 05:00:51;;;;;;;;;;;;;;;14.26;nan;100991.41;4968876;28;19926;-87
2023/02/21 05:03:17;;;;;;;;;;;;;;;14.27;nan;101001.91;4966939;28;19929;-87
2023/02/21 05:05:42;;;;;;;;;;;;;;;14.31;nan;101004.88;4966403;28;19962;-87
2023/02/21 05:08:08;;;;;;;;;;;;;;;14.26;nan;100991.41;4962358;28;19976;-88
2023/02/21 05:10:33;;;;;;;;;;;;;;;14.25;nan;101000.56;4968834;28;19922;-88
2023/02/21 05:12:59;;;;;;;;;;;;;;;14.24;nan;101001.66;4962847;28;20452;-88
2023/02/21 05:15:24;;;;;;;;;;;;;;;14.26;nan;100999.50;4956341;28;19918;-88
2023/02/21 05:17:50;;;;;;;;;;;;;;;14.25;nan;100997.88;4968479;28;19922;-87
2023/02/21 05:20:15;;;;;;;;;;;;;;;14.19;nan;100992.50;4971702;28;20319;-87
2023/02/21 05:22:41;;;;;;;;;;;;;;;14.18;nan;100992.72;4971935;28;20460;-89
2023/02/21 05:25:13;;;;;;;;;;;;;;;14.15;nan;101006.72;4960651;28;19976;-88
2023/02/21 05:27:38;;;;;;;;;;;;;;;14.11;nan;101013.72;4960062;28;21249;-87
2023/02/21 05:30:04;;;;;;;;;;;;;;;14.11;nan;101016.44;4960759;28;19934;-88
2023/02/21 05:32:29;;;;;;;;;;;;;;;14.12;nan;101008.06;4964585;28;19926;-89
2023/02/21 05:34:55;;;;;;;;;;;;;;;14.11;nan;101006.47;4967824;28;19925;-88
2023/02/21 05:37:20;;;;;;;;;;;;;;;14.06;nan;101011.84;4965488;28;19913;-89
2023/02/21 05:39:46;;;;;;;;;;;;;;;14.09;nan;101021.28;4968094;28;19907;-87
2023/02/21 05:42:11;;;;;;;;;;;;;;;13.98;nan;101020.41;4965677;28;19917;-89
2023/02/21 05:44:37;;;;;;;;;;;;;;;13.99;nan;101013.16;4952764;28;20501;-87
2023/02/21 05:47:02;;;;;;;;;;;;;;;13.98;nan;101027.69;4960786;28;19929;-87
2023/02/21 05:49:28;;;;;;;;;;;;;;;13.93;nan;101014.22;4959033;28;19997;-88
2023/02/21 05:51:53;;;;;;;;;;;;;;;13.90;nan;101020.94;4962276;28;19954;-87
2023/02/21 05:54:19;;;;;;;;;;;;;;;13.79;nan;101032.72;4959545;28;19923;-88
2023/02/21 05:56:46;;;;;;;;;;;;;;;13.80;nan;101027.06;4972253;28;19950;-87
2023/02/21 05:59:12;;;;;;;;;;;;;;;13.94;nan;101022.03;4967971;28;19969;-85
2023/02/21 06:01:38;;;;;;;;;;;;;;;13.88;nan;101010.44;4970232;28;19922;-86
2023/02/21 06:04:04;;;;;;;;;;;;;;;13.85;nan;101010.97;4964615;28;19907;-86
2023/02/21 06:06:29;;;;;;;;;;;;;;;13.85;nan;101012.84;4972791;28;19926;-87
2023/02/21 06:08:55;;;;;;;;;;;;;;;13.89;nan;101019.31;4971604;28;19934;-88
2023/02/21 06:11:25;;;;;;;;;;;;;;;13.90;nan;101031.72;4964086;28;20269;-86
2023/02/21 06:13:51;;;;;;;;;;;;;;;13.79;nan;101028.16;4952715;28;19937;-86
2023/02/21 06:16:17;;;;;;;;;;;;;;;13.76;nan;101027.88;4967568;28;19968;-88
2023/02/21 06:18:42;;;;;;;;;;;;;;;13.73;nan;101023.00;4965454;28;19926;-87
2023/02/21 06:21:08;;;;;;;;;;;;;;;13.70;nan;101023.53;4965975;28;20569;-86
2023/02/21 06:23:33;;;;;;;;;;;;;;;13.73;nan;101031.09;4966716;28;19926;-86
2023/02/21 06:25:59;;;;;;;;;;;;;;;13.75;nan;101031.63;4977311;28;20222;-87
2023/02/21 06:28:30;;;;;;;;;;;;;;;13.76;nan;101039.44;4964327;28;19928;-86
2023/02/21 06:30:56;;;;;;;;;;;;;;;13.71;nan;101042.13;4971323;28;19926;-86
2023/02/21 06:33:22;;;;;;;;;;;;;;;13.71;nan;101054.78;4975882;28;19918;-87
2023/02/21 06:35:47;;;;;;;;;;;;;;;13.73;nan;101064.22;4963297;28;19941;-87
2023/02/21 06:38:13;;;;;;;;;;;;;;;13.76;nan;101066.38;4967382;28;20276;-86
2023/02/21 06:40:38;;;;;;;;;;;;;;;13.75;nan;101066.66;4964760;28;19918;-87
2023/02/21 06:43:03;;;;;;;;;;;;;;;13.73;nan;101068.78;4971824;28;19950;-87
2023/02/21 06:45:29;;;;;;;;;;;;;;;13.74;nan;101073.91;4964372;28;19933;-87
2023/02/21 06:47:54;;;;;;;;;;;;;;;13.66;nan;101077.13;4973123;28;19921;-87
2023/02/21 06:50:19;;;;;;;;;;;;;;;13.69;nan;101083.84;4963768;28;19930;-89
2023/02/21 06:52:45;;;;;;;;;;;;;;;13.65;nan;101082.75;4961988;28;19980;-87
2023/02/21 06:55:10;;;;;;;;;;;;;;;13.68;nan;101082.22;4970127;28;19918;-86
2023/02/21 06:57:36;;;;;;;;;;;;;;;13.68;nan;101072.28;4971332;28;19922;-87
2023/02/21 07:00:02;;;;;;;;;;;;;;;13.71;nan;101085.22;4972811;28;19926;-87
2023/02/21 07:02:28;;;;;;;;;;;;;;;13.76;nan;101082.53;4965011;28;20424;-86
2023/02/21 07:04:53;;;;;;;;;;;;;;;13.85;nan;101090.94;4968639;28;19984;-87
2023/02/21 07:07:18;;;;;;;;;;;;;;;13.85;nan;101102.53;4968350;28;19965;-86
2023/02/21 07:09:44;;;;;;;;;;;;;;;13.89;nan;101102.81;4975854;28;20475;-86
2023/02/21 07:12:09;;;;;;;;;;;;;;;13.84;nan;101103.59;4968530;28;19918;-86
2023/02/21 07:14:34;;;;;;;;;;;;;;;13.81;nan;101104.09;4968190;28;19925;-87
2023/02/21 07:17:00;;;;;;;;;;;;;;;13.85;nan;101112.50;4962057;28;19925;-86
2023/02/21 07:19:25;;;;;;;;;;;;;;;13.93;nan;101119.25;4973768;28;20548;-86
2023/02/21 07:21:51;;;;;;;;;;;;;;;13.99;nan;101129.78;4973270;28;19945;-85
2023/02/21 07:24:16;;;;;;;;;;;;;;;14.02;nan;101140.06;4967603;28;19926;-86
2023/02/21 07:26:41;;;;;;;;;;;;;;;14.09;nan;101156.81;4978382;28;19939;-86
2023/02/21 07:29:07;;;;;;;;;;;;;;;14.08;nan;101149.78;4971198;28;20590;-86
2023/02/21 07:31:32;;;;;;;;;;;;;;;14.17;nan;101150.91;4969378;28;19933;-86
2023/02/21 07:33:58;;;;;;;;;;;;;;;14.19;nan;101162.25;4970906;28;19958;-86
2023/02/21 07:36:23;;;;;;;;;;;;;;;14.24;nan;101161.47;4972243;28;20808;-86
2023/02/21 07:38:49;;;;;;;;;;;;;;;14.22;nan;101171.69;4976734;28;19922;-87
2023/02/21 07:41:15;;;;;;;;;;;;;;;14.22;nan;101171.69;4972664;28;19914;-86
2023/02/21 07:43:40;;;;;;;;;;;;;;;14.23;nan;101184.09;4970377;28;19922;-86
2023/02/21 07:46:10;;;;;;;;;;;;;;;14.21;nan;101183.56;4963295;28;21373;-85
2023/02/21 07:48:35;;;;;;;;;;;;;;;14.22;nan;101185.19;4964763;28;19966;-85
2023/02/21 07:51:00;;;;;;;;;;;;;;;14.26;nan;101183.56;4968300;28;19931;-85
2023/02/21 07:53:26;;;;;;;;;;;;;;;14.33;nan;101178.75;4982309;28;19997;-86
2023/02/21 07:55:51;;;;;;;;;;;;;;;14.35;nan;101187.38;4978386;28;19929;-86
2023/02/21 07:58:16;;;;;;;;;;;;;;;14.34;nan;101195.72;4980056;28;19930;-86
2023/02/21 08:00:42;;;;;;;;;;;;;;;14.33;nan;101194.09;4978472;28;19993;-85
2023/02/21 08:03:11;;;;;;;;;;;;;;;14.20;nan;101201.59;4975256;28;19917;-85
2023/02/21 08:05:36;;;;;;;;;;;;;;;14.30;nan;101208.13;4976984;28;20483;-86
2023/02/21 08:08:01;;;;;;;;;;;;;;;14.35;nan;101200.03;4980934;28;19981;-85
2023/02/21 08:10:28;;;;;;;;;;;;;;;14.41;nan;101197.13;4974342;28;20239;-84
2023/02/21 08:12:53;;;;;;;;;;;;;;;14.51;nan;101209.88;4980683;28;19918;-85
2023/02/21 08:15:19;;;;;;;;;;;;;;;14.49;nan;101215.53;4974259;28;19926;-85
2023/02/21 08:17:47;;;;;;;;;;;;;;;14.48;nan;101226.56;4970983;28;19923;-85
2023/02/21 08:20:12;;;;;;;;;;;;;;;14.46;nan;101228.72;4969908;28;19962;-86
2023/02/21 08:22:37;;;;;;;;;;;;;;;14.54;nan;101222.81;4966002;28;19977;-86
2023/02/21 08:25:03;;;;;;;;;;;;;;;14.60;nan;101216.38;4970492;28;19929;-86
2023/02/21 08:27:29;;;;;;;;;;;;;;;14.68;nan;101223.97;4970792;28;19919;-85
2023/02/21 08:29:54;;;;;;;;;;;;;;;14.73;nan;101229.41;4978477;28;19922;-85
2023/02/21 08:32:20;;;;;;;;;;;;;;;14.75;nan;101238.03;4971775;28;19927;-84
2023/02/21 08:34:45;;;;;;;;;;;;;;;14.77;nan;101243.16;4970468;28;19922;-87
2023/02/21 08:37:16;;;;;;;;;;;;;;;14.82;nan;101225.09;4965466;28;19938;-86
2023/02/21 08:39:45;;;;;;;;;;;;;;;14.73;nan;101228.59;4964792;28;19922;-87
2023/02/21 08:42:11;;;;;;;;;;;;;;;14.73;nan;101234.78;4971043;28;19926;-86
2023/02/21 08:44:38;;;;;;;;;;;;;;;14.70;nan;101247.97;4973300;28;19933;-87
2023/02/21 08:47:04;;;;;;;;;;;;;;;14.52;nan;101263.53;4970246;28;19928;-87
2023/02/21 08:49:29;;;;;;;;;;;;;;;14.49;nan;101263.25;4968849;28;20359;-87
2023/02/21 08:51:54;;;;;;;;;;;;;;;14.42;nan;101254.56;4970410;28;19922;-86
2023/02/21 08:54:20;;;;;;;;;;;;;;;14.45;nan;101249.47;4971865;28;19929;-85
2023/02/21 08:56:45;;;;;;;;;;;;;;;14.61;nan;101261.16;4977116;28;19922;-87
2023/02/21 08:59:10;;;;;;;;;;;;;;;14.62;nan;101245.78;4970488;28;20402;-87
2023/02/21 09:01:36;;;;;;;;;;;;;;;14.61;nan;101252.25;4970695;28;19922;-87
2023/02/21 09:04:02;;;;;;;;;;;;;;;14.56;nan;101263.03;4969291;28;19973;-86
2023/02/21 09:06:28;;;;;;;;;;;;;;;14.54;nan;101268.66;4968608;28;19926;-86
2023/02/21 09:08:54;;;;;;;;;;;;;;;14.60;nan;101256.03;4969285;28;19981;-88
2023/02/21 09:11:19;;;;;;;;;;;;;;;14.73;nan;101263.66;4940147;28;19982;-87
2023/02/21 09:13:47;;;;;;;;;;;;;;;14.78;nan;101260.97;4960463;28;19922;-87
2023/02/21 09:16:12;;;;;;;;;;;;;;;14.82;nan;101265.56;4958845;28;19918;-87
2023/02/21 09:18:37;;;;;;;;;;;;;;;14.73;nan;101259.06;4960344;28;20316;-87
2023/02/21 09:21:04;;;;;;;;;;;;;;;14.78;nan;101275.25;4962230;28;20400;-87
2023/02/21 09:23:30;;;;;;;;;;;;;;;14.77;nan;101284.44;4956970;28;19923;-88
2023/02/21 09:25:55;;;;;;;;;;;;;;;14.79;nan;101282.28;4955190;28;19929;-87
2023/02/21 09:28:21;;;;;;;;;;;;;;;14.82;nan;101279.06;4954662;28;20281;-87
2023/02/21 09:30:47;;;;;;;;;;;;;;;14.92;nan;101278.31;4955893;28;19923;-87
2023/02/21 09:33:13;;;;;;;;;;;;;;;15.04;nan;101275.34;4962611;28;19925;-87
2023/02/21 09:35:38;;;;;;;;;;;;;;;15.12;nan;101280.25;4957791;28;19965;-88
2023/02/21 09:38:07;;;;;;;;;;;;;;;15.25;nan;101281.63;4960394;28;19946;-87
2023/02/21 09:40:38;;;;;;;;;;;;;;;15.36;nan;101289.50;4952736;28;19919;-87
2023/02/21 09:43:05;;;;;;;;;;;;;;;15.41;nan;101276.00;4963715;28;20331;-87
2023/02/21 09:45:32;;;;;;;;;;;;;;;15.44;nan;101290.88;4956694;28;19926;-87
2023/02/21 09:48:00;;;;;;;;;;;;;;;15.41;nan;101284.09;4960952;28;19929;-87
2023/02/21 09:50:29;;;;;;;;;;;;;;;15.36;nan;101291.38;4956493;28;19926;-87
2023/02/21 09:52:57;;;;;;;;;;;;;;;15.36;nan;101297.59;4957232;28;19929;-88
2023/02/21 09:55:32;;;;;;;;;;;;;;;15.15;nan;101303.19;4958750;28;19922;-87
2023/02/21 09:57:57;;;;;;;;;;;;;;;15.11;nan;101308.31;4939495;28;20025;-87
2023/02/21 10:00:32;;;;;;;;;;;;;;;15.11;nan;101302.94;4957085;28;20039;-87
2023/02/21 10:03:16;;;;;;;;;;;;;;;15.09;nan;101305.91;4957712;28;19922;-86
2023/02/21 10:05:48;;;;;;;;;;;;;;;15.12;nan;101315.34;4957392;28;19977;-87
2023/02/21 10:08:23;;;;;;;;;;;;;;;15.26;nan;101316.47;4951741;28;19924;-86
2023/02/21 10:10:52;;;;;;;;;;;;;;;15.28;nan;101319.72;4956558;28;20395;-87
2023/02/21 10:13:21;;;;;;;;;;;;;;;15.34;nan;101321.34;4955354;28;19923;-88
2023/02/21 10:15:50;;;;;;;;;;;;;;;15.34;nan;101326.75;4953832;28;20372;-88
2023/02/21 10:18:30;;;;;;;;;;;;;;;15.24;nan;101332.09;4958301;28;20377;-88
2023/02/21 10:21:03;;;;;;;;;;;;;;;15.27;nan;101338.88;4952003;28;20020;-86
2023/02/21 10:23:37;;;;;;;;;;;;;;;15.24;nan;101337.50;4957366;28;19918;-87
2023/02/21 10:26:08;;;;;;;;;;;;;;;15.20;nan;101338.31;4953102;28;19963;-87
2023/02/21 10:28:33;;;;;;;;;;;;;;;15.27;nan;101338.88;4950488;28;19918;-88
2023/02/21 10:31:01;;;;;;;;;;;;;;;15.33;nan;101340.50;4957274;28;19926;-87
2023/02/21 10:33:29;;;;;;;;;;;;;;;15.27;nan;101345.09;4957416;28;20308;-90
2023/02/21 10:35:55;;;;;;;;;;;;;;;15.28;nan;101344.03;4955219;28;20387;-87
2023/02/21 10:38:23;;;;;;;;;;;;;;;15.27;nan;101353.19;4949577;28;20078;-87
2023/02/21 10:41:01;;;;;;;;;;;;;;;15.35;nan;101344.56;4956613;28;20372;-88
2023/02/21 10:43:33;;;;;;;;;;;;;;;15.34;nan;101345.66;4953214;28;19922;-88
2023/02/21 10:46:01;;;;;;;;;;;;;;;15.43;nan;101338.63;4954121;28;19977;-87
2023/02/21 10:48:29;;;;;;;;;;;;;;;15.47;nan;101343.53;4949327;28;19926;-87
2023/02/21 10:50:57;;;;;;;;;;;;;;;15.55;nan;101351.09;4959000;28;19965;-87
2023/02/21 10:53:26;;;;;;;;;;;;;;;15.52;nan;101346.25;4949427;28;19965;-89
2023/02/21 10:56:09;;;;;;;;;;;;;;;15.45;nan;101343.00;4958805;28;19929;-87
2023/02/21 10:58:35;;;;;;;;;;;;;;;15.58;nan;101351.38;4958285;28;20400;-87
2023/02/21 11:01:20;;;;;;;;;;;;;;;15.72;nan;101349.00;4957559;28;19929;-88
2023/02/21 11:03:47;;;;;;;;;;;;;;;15.92;nan;101340.13;4952398;28;19938;-87
2023/02/21 11:06:26;;;;;;;;;;;;;;;15.94;nan;101338.75;4954741;28;19922;-88
2023/02/21 11:08:51;;;;;;;;;;;;;;;15.98;nan;101337.16;4948173;28;19923;-87
2023/02/21 11:11:32;;;;;;;;;;;;;;;16.07;nan;101340.13;4957834;28;20013;-87
2023/02/21 11:14:16;;;;;;;;;;;;;;;16.23;nan;101340.94;4948633;28;19958;-86
2023/02/21 11:16:42;;;;;;;;;;;;;;;16.32;nan;101325.78;4949593;28;19922;-87
2023/02/21 11:19:11;;;;;;;;;;;;;;;16.36;nan;101339.59;4959037;28;19918;-88
2023/02/21 11:21:36;;;;;;;;;;;;;;;16.30;nan;101333.34;4954377;28;20372;-88
2023/02/21 11:24:03;;;;;;;;;;;;;;;16.27;nan;101336.59;4958350;28;19955;-88
2023/02/21 11:26:30;;;;;;;;;;;;;;;16.37;nan;101328.50;4953430;28;19949;-88
2023/02/21 11:29:05;;;;;;;;;;;;;;;16.45;nan;101324.41;4956302;28;20016;-87
2023/02/21 11:31:31;;;;;;;;;;;;;;;16.55;nan;101333.34;4955539;28;19925;-86
2023/02/21 11:34:02;;;;;;;;;;;;;;;16.50;nan;101330.63;4938156;28;19934;-88
2023/02/21 11:36:29;;;;;;;;;;;;;;;16.54;nan;101331.72;4946623;28;19933;-88
2023/02/21 11:38:57;;;;;;;;;;;;;;;16.52;nan;101331.19;4953129;28;19926;-88
2023/02/21 11:41:34;;;;;;;;;;;;;;;16.53;nan;101335.50;4954573;28;19922;-89
2023/02/21 11:43:59;;;;;;;;;;;;;;;16.44;nan;101330.91;4952553;28;20009;-87
2023/02/21 11:46:43;;;;;;;;;;;;;;;16.44;nan;101342.53;4949634;28;20102;-88
2023/02/21 11:49:21;;;;;;;;;;;;;;;16.31;nan;101332.28;4948658;28;20017;-87
2023/02/21 11:51:46;;;;;;;;;;;;;;;16.41;nan;101336.88;4956084;28;19965;-88
2023/02/21 11:54:12;;;;;;;;;;;;;;;16.49;nan;101342.53;4951473;28;19976;-88
2023/02/21 11:56:44;;;;;;;;;;;;;;;16.56;nan;101345.78;4951653;28;20373;-88
2023/02/21 11:59:16;;;;;;;;;;;;;;;16.54;nan;101344.44;4955740;28;19973;-90
2023/02/21 12:02:00;;;;;;;;;;;;;;;16.49;nan;101333.59;4958417;28;20079;-87
2023/02/21 12:04:36;;;;;;;;;;;;;;;16.42;nan;101339.31;4955934;28;19926;-88
2023/02/21 12:07:20;;;;;;;;;;;;;;;16.50;nan;101340.63;4951993;28;19953;-87
2023/02/21 12:09:52;;;;;;;;;;;;;;;16.55;nan;101336.03;4959601;28;19918;-88
2023/02/21 12:12:25;;;;;;;;;;;;;;;16.59;nan;101345.22;4953356;28;20360;-88
2023/02/21 12:15:15;;;;;;;;;;;;;;;16.71;nan;101346.88;4957980;28;19932;-87
2023/02/21 12:17:40;;;;;;;;;;;;;;;16.55;nan;101348.75;4958371;28;20431;-88
2023/02/21 12:20:08;;;;;;;;;;;;;;;16.53;nan;101348.22;4956059;28;19926;-88
2023/02/21 12:22:54;;;;;;;;;;;;;;;16.48;nan;101332.78;4960243;28;20112;-88
2023/02/21 12:25:28;;;;;;;;;;;;;;;16.54;nan;101355.25;4936392;28;19922;-87
2023/02/21 12:28:12;;;;;;;;;;;;;;;16.55;nan;101354.16;4957957;28;20521;-87
2023/02/21 12:30:50;;;;;;;;;;;;;;;16.50;nan;101354.97;4958228;28;20013;-89
2023/02/21 12:33:15;;;;;;;;;;;;;;;16.57;nan;101350.09;4954179;28;19922;-88
2023/02/21 12:35:47;;;;;;;;;;;;;;;16.74;nan;101343.63;4957256;28;19922;-89
2023/02/21 12:38:22;;;;;;;;;;;;;;;16.76;nan;101360.38;4954908;28;19918;-87
2023/02/21 12:40:55;;;;;;;;;;;;;;;16.82;nan;101364.69;4959934;28;19922;-87
2023/02/21 12:43:27;;;;;;;;;;;;;;;16.88;nan;101359.00;4942854;28;19926;-87
2023/02/21 12:45:52;;;;;;;;;;;;;;;16.96;nan;101354.09;4957231;28;20285;-88
2023/02/21 12:48:29;;;;;;;;;;;;;;;16.88;nan;101360.91;4961439;28;20030;-88
2023/02/21 12:50:59;;;;;;;;;;;;;;;16.84;nan;101351.69;4956496;28;20392;-87
2023/02/21 12:53:28;;;;;;;;;;;;;;;16.75;nan;101354.16;4956326;28;19929;-88
2023/02/21 12:56:09;;;;;;;;;;;;;;;16.87;nan;101345.72;4935735;28;19959;-87
2023/02/21 12:58:50;;;;;;;;;;;;;;;16.93;nan;101355.47;4957711;28;19922;-88
2023/02/21 13:01:18;;;;;;;;;;;;;;;17.04;nan;101343.50;4957115;28;19922;-88
2023/02/21 13:03:52;;;;;;;;;;;;;;;17.20;nan;101344.25;4957501;28;19937;-88
2023/02/21 13:06:17;;;;;;;;;;;;;;;17.23;nan;101343.69;4958884;28;19932;-88
2023/02/21 13:08:50;;;;;;;;;;;;;;;17.30;nan;101348.81;4961315;28;19926;-87
2023/02/21 13:11:21;;;;;;;;;;;;;;;17.27;nan;101330.44;4960885;28;19929;-88
2023/02/21 13:13:47;;;;;;;;;;;;;;;17.20;nan;101342.34;4938829;28;19926;-88
2023/02/21 13:16:13;;;;;;;;;;;;;;;17.11;nan;101354.84;4959436;28;20719;-87
2023/02/21 13:18:41;;;;;;;;;;;;;;;17.13;nan;101354.56;4958198;28;20009;-88
2023/02/21 13:21:32;;;;;;;;;;;;;;;17.14;nan;101357.00;4960992;28;19954;-87
2023/02/21 13:24:16;;;;;;;;;;;;;;;17.19;nan;101356.97;4875461;29;20294;-87
2023/02/21 13:26:49;;;;;;;;;;;;;;;17.08;nan;101358.13;4874824;29;20355;-87
2023/02/21 13:29:25;;;;;;;;;;;;;;;17.17;nan;101370.00;4939531;28;19962;-87
2023/02/21 13:32:11;;;;;;;;;;;;;;;17.27;nan;101371.84;4958375;28;20084;-88
2023/02/21 13:34:44;;;;;;;;;;;;;;;17.26;nan;101361.31;4963605;28;19922;-87
2023/02/21 13:37:15;;;;;;;;;;;;;;;17.44;nan;101369.63;4958205;28;19981;-88
2023/02/21 13:39:44;;;;;;;;;;;;;;;17.57;nan;101359.22;4956526;28;20380;-88
2023/02/21 13:42:14;;;;;;;;;;;;;;;17.56;nan;101366.53;4957591;28;19968;-88
2023/02/21 13:44:42;;;;;;;;;;;;;;;17.59;nan;101365.97;4961475;28;19985;-87
2023/02/21 13:47:12;;;;;;;;;;;;;;;17.59;nan;101365.97;4958372;28;19932;-89
2023/02/21 13:49:57;;;;;;;;;;;;;;;17.53;nan;101372.53;4950363;28;20365;-88
2023/02/21 13:52:28;;;;;;;;;;;;;;;17.32;nan;101369.13;4957282;28;19953;-88
2023/02/21 13:55:20;;;;;;;;;;;;;;;17.30;nan;101365.06;4954783;28;19926;-88
2023/02/21 13:57:48;;;;;;;;;;;;;;;17.21;nan;101368.34;4956115;28;19925;-87
2023/02/21 14:00:19;;;;;;;;;;;;;;;17.19;nan;101370.50;4957330;28;19993;-87
2023/02/21 14:02:54;;;;;;;;;;;;;;;17.24;nan;101383.25;4957735;28;19926;-87
2023/02/21 14:05:20;;;;;;;;;;;;;;;17.34;nan;101380.47;4960254;28;19927;-88
2023/02/21 14:07:47;;;;;;;;;;;;;;;17.27;nan;101371.84;4957559;28;20386;-87
2023/02/21 14:10:16;;;;;;;;;;;;;;;17.16;nan;101384.63;4957567;28;20440;-88
2023/02/21 14:12:42;;;;;;;;;;;;;;;17.22;nan;101388.09;4959395;28;19925;-89
2023/02/21 14:15:09;;;;;;;;;;;;;;;17.33;nan;101384.28;4957723;28;20016;-88
2023/02/21 14:17:35;;;;;;;;;;;;;;;17.42;nan;101379.91;4961240;28;19925;-88
2023/02/21 14:20:02;;;;;;;;;;;;;;;17.44;nan;101388.56;4959036;28;20744;-87
2023/02/21 14:22:29;;;;;;;;;;;;;;;17.48;nan;101386.91;4959100;28;19966;-87
2023/02/21 14:25:06;;;;;;;;;;;;;;;17.42;nan;101396.16;4955804;28;20257;-87
2023/02/21 14:27:33;;;;;;;;;;;;;;;17.28;nan;101397.03;4959513;28;19922;-88
2023/02/21 14:30:01;;;;;;;;;;;;;;;17.27;nan;101390.00;4957189;28;20506;-87
2023/02/21 14:32:38;;;;;;;;;;;;;;;17.22;nan;101401.66;4955030;28;19926;-88
2023/02/21 14:35:15;;;;;;;;;;;;;;;17.28;nan;101405.97;4955631;28;20146;-87
2023/02/21 14:37:50;;;;;;;;;;;;;;;17.31;nan;101404.59;4953336;28;20021;-88
2023/02/21 14:40:26;;;;;;;;;;;;;;;17.10;nan;101410.09;4959209;28;20080;-88
2023/02/21 14:42:51;;;;;;;;;;;;;;;17.01;nan;101408.22;4957576;28;20390;-87
2023/02/21 14:45:33;;;;;;;;;;;;;;;17.02;nan;101410.66;4954760;28;19927;-89
2023/02/21 14:48:17;;;;;;;;;;;;;;;17.00;nan;101418.22;4953327;28;20130;-87
2023/02/21 14:50:42;;;;;;;;;;;;;;;16.94;nan;101416.63;4953600;28;19923;-89
2023/02/21 14:53:26;;;;;;;;;;;;;;;16.92;nan;101419.63;4958770;28;19922;-88
2023/02/21 14:55:54;;;;;;;;;;;;;;;16.79;nan;101425.59;4957683;28;19922;-87
2023/02/21 14:58:20;;;;;;;;;;;;;;;16.75;nan;101427.22;4958327;28;19922;-88
2023/02/21 15:01:04;;;;;;;;;;;;;;;16.76;nan;101431.53;4956697;28;19929;-87
2023/02/21 15:03:55;;;;;;;;;;;;;;;16.78;nan;101433.97;4956246;28;20292;-87
2023/02/21 15:06:24;;;;;;;;;;;;;;;16.84;nan;101432.88;4949376;28;20012;-88
2023/02/21 15:08:50;;;;;;;;;;;;;;;16.72;nan;101435.06;4954390;28;19922;-88
2023/02/21 15:11:28;;;;;;;;;;;;;;;16.69;nan;101438.31;4958368;28;19961;-87
2023/02/21 15:14:12;;;;;;;;;;;;;;;16.60;nan;101444.25;4939809;28;19919;-88
2023/02/21 15:16:42;;;;;;;;;;;;;;;16.61;nan;101445.88;4957495;28;20265;-87
2023/02/21 15:19:18;;;;;;;;;;;;;;;16.49;nan;101442.59;4958497;28;19918;-87
2023/02/21 15:21:43;;;;;;;;;;;;;;;16.51;nan;101445.84;4958252;28;20359;-87